Time;durP1;ratioP1;P1;durP2;ratioP2;P2;SDS_P1;SDS_P2;PMS_P1;PMS_P2;Temp;Humidity;BMP_temperature;BMP_pressure;BME280_temperature;BME280_humidity;BME280_pressure;Samples;Min_cycle;Max_cycle;Signal;HPM_P1;HPM_P2
2021/09/01 00:00:33;;;;;;;4.37;3.90;;;18.20;99.90;;;;;;5093944;28;20204;-66
2021/09/01 00:02:58;;;;;;;3.87;3.07;;;18.20;99.90;;;;;;5093951;28;20638;-67
2021/09/01 00:05:24;;;;;;;3.73;3.40;;;18.20;99.90;;;;;;5094078;28;20192;-65
2021/09/01 00:07:50;;;;;;;3.53;3.23;;;18.10;99.90;;;;;;5094408;28;20249;-65
2021/09/01 00:10:15;;;;;;;3.60;3.20;;;18.10;99.90;;;;;;5109488;28;20235;-65
2021/09/01 00:12:43;;;;;;;3.80;3.40;;;18.10;99.90;;;;;;5093764;28;20202;-66
2021/09/01 00:15:10;;;;;;;3.50;3.20;;;18.00;99.90;;;;;;5093825;28;20498;-65
2021/09/01 00:17:37;;;;;;;3.80;3.47;;;18.00;99.90;;;;;;5094351;28;20412;-65
2021/09/01 00:20:06;;;;;;;3.53;3.03;;;18.00;99.90;;;;;;5093755;28;20463;-65
2021/09/01 00:22:32;;;;;;;4.13;3.27;;;18.00;99.90;;;;;;5126386;28;20432;-65
2021/09/01 00:24:58;;;;;;;5.23;3.80;;;18.00;99.90;;;;;;5093749;28;20435;-65
2021/09/01 00:27:23;;;;;;;6.80;3.40;;;18.00;99.90;;;;;;5093449;28;20211;-65
2021/09/01 00:29:49;;;;;;;4.90;4.07;;;18.00;99.90;;;;;;5093556;28;20216;-66
2021/09/01 00:32:15;;;;;;;4.20;3.07;;;17.90;99.90;;;;;;5094012;28;20682;-66
2021/09/01 00:34:40;;;;;;;4.07;3.20;;;17.90;99.90;;;;;;5093548;28;20271;-66
2021/09/01 00:37:06;;;;;;;4.13;3.60;;;17.90;99.90;;;;;;5093889;28;20211;-65
2021/09/01 00:39:31;;;;;;;4.60;3.30;;;17.90;99.90;;;;;;5109327;28;20563;-66
2021/09/01 00:42:10;;;;;;;4.33;3.90;;;17.90;99.90;;;;;;5126468;28;20184;-65
2021/09/01 00:44:37;;;;;;;4.47;3.77;;;17.90;99.90;;;;;;5126450;28;20626;-65
2021/09/01 00:47:05;;;;;;;4.60;3.50;;;17.90;99.90;;;;;;5093859;28;20409;-65
2021/09/01 00:49:31;;;;;;;5.30;4.00;;;17.90;99.90;;;;;;5093408;28;20469;-66
2021/09/01 00:51:57;;;;;;;3.23;3.00;;;17.90;99.90;;;;;;5093521;28;20429;-65
2021/09/01 00:54:27;;;;;;;3.73;3.40;;;17.90;99.90;;;;;;5093593;28;20393;-65
2021/09/01 00:56:55;;;;;;;4.07;3.40;;;17.90;99.90;;;;;;5093859;28;20421;-65
2021/09/01 00:59:25;;;;;;;4.07;3.70;;;17.80;99.90;;;;;;5126226;28;20421;-65
2021/09/01 01:01:52;;;;;;;4.23;3.83;;;17.80;99.90;;;;;;5093656;28;20421;-65
2021/09/01 01:04:18;;;;;;;3.83;3.53;;;17.80;99.90;;;;;;5126101;28;20922;-65
2021/09/01 01:06:44;;;;;;;5.30;3.77;;;17.80;99.90;;;;;;5093519;28;20519;-65
2021/09/01 01:09:10;;;;;;;6.07;4.00;;;17.80;99.90;;;;;;5093121;28;20540;-65
2021/09/01 01:11:38;;;;;;;3.90;3.47;;;17.80;99.90;;;;;;5096993;28;20760;-66
2021/09/01 01:14:03;;;;;;;5.03;3.90;;;17.70;99.90;;;;;;5097147;28;20393;-66
2021/09/01 01:16:31;;;;;;;4.50;3.87;;;17.70;99.90;;;;;;5097160;28;20471;-65
2021/09/01 01:18:59;;;;;;;5.80;4.07;;;17.70;99.90;;;;;;5112786;28;20232;-66
2021/09/01 01:21:27;;;;;;;4.83;3.87;;;17.70;99.90;;;;;;5097138;28;20432;-65
2021/09/01 01:23:58;;;;;;;5.77;5.00;;;17.70;99.90;;;;;;5096971;28;20419;-65
2021/09/01 01:26:25;;;;;;;4.60;3.90;;;17.70;99.90;;;;;;5097055;28;20508;-65
2021/09/01 01:28:53;;;;;;;4.17;3.63;;;17.70;99.90;;;;;;5112553;28;20507;-65
2021/09/01 01:31:19;;;;;;;5.27;4.30;;;17.70;99.90;;;;;;5096690;28;20547;-65
2021/09/01 01:33:45;;;;;;;5.37;4.20;;;17.70;99.90;;;;;;5096760;28;20413;-66
2021/09/01 01:36:10;;;;;;;4.83;4.30;;;17.70;99.90;;;;;;5112287;28;20437;-65
2021/09/01 01:38:36;;;;;;;4.07;3.67;;;17.70;99.90;;;;;;5112262;28;20200;-66
2021/09/01 01:41:02;;;;;;;4.33;3.43;;;17.60;99.90;;;;;;5112286;28;20249;-65
2021/09/01 01:43:31;;;;;;;7.30;4.17;;;17.60;99.90;;;;;;5096526;28;20172;-65
2021/09/01 01:45:56;;;;;;;4.83;4.30;;;17.60;99.90;;;;;;5096451;28;20717;-67
2021/09/01 01:48:23;;;;;;;6.03;5.00;;;17.60;99.90;;;;;;5096342;28;20437;-65
2021/09/01 01:50:48;;;;;;;4.73;4.20;;;17.60;99.90;;;;;;5096281;28;20224;-65
2021/09/01 01:53:14;;;;;;;6.37;4.53;;;17.70;99.90;;;;;;5112108;28;20957;-65
2021/09/01 01:55:40;;;;;;;5.43;4.50;;;17.70;99.90;;;;;;5096187;28;20199;-65
2021/09/01 01:58:05;;;;;;;5.90;4.20;;;17.70;99.90;;;;;;5096222;28;20172;-65
2021/09/01 02:00:31;;;;;;;6.37;4.00;;;17.70;99.90;;;;;;5096023;28;20188;-66
2021/09/01 02:02:57;;;;;;;6.40;4.50;;;17.70;99.90;;;;;;5096201;28;20173;-66
2021/09/01 02:05:23;;;;;;;4.80;4.20;;;17.70;99.90;;;;;;5096068;28;20459;-66
2021/09/01 02:07:48;;;;;;;6.77;4.53;;;17.70;99.90;;;;;;5096640;28;20637;-65
2021/09/01 02:10:14;;;;;;;5.30;4.40;;;17.70;99.90;;;;;;5095888;28;20290;-65
2021/09/01 02:12:40;;;;;;;6.87;5.30;;;17.80;99.90;;;;;;5096541;28;20177;-65
2021/09/01 02:15:08;;;;;;;4.80;4.23;;;17.70;99.90;;;;;;5095872;28;20712;-65
2021/09/01 02:17:34;;;;;;;5.33;4.47;;;17.70;99.90;;;;;;5096515;28;20421;-65
2021/09/01 02:20:00;;;;;;;4.60;3.93;;;17.80;99.90;;;;;;5095746;28;20439;-65
2021/09/01 02:22:26;;;;;;;5.77;5.00;;;17.80;99.90;;;;;;5095907;28;20184;-65
2021/09/01 02:24:52;;;;;;;5.53;4.93;;;17.80;99.90;;;;;;5095719;28;20431;-66
2021/09/01 02:27:18;;;;;;;5.33;4.83;;;17.80;99.90;;;;;;5111202;28;20535;-65
2021/09/01 02:29:43;;;;;;;5.23;4.73;;;17.80;99.90;;;;;;5095522;28;20204;-65
2021/09/01 02:32:10;;;;;;;5.00;4.50;;;17.90;99.90;;;;;;5111435;28;20768;-65
2021/09/01 02:34:36;;;;;;;4.97;4.23;;;17.90;99.90;;;;;;5095638;28;20193;-66
2021/09/01 02:37:02;;;;;;;6.27;5.20;;;17.90;99.90;;;;;;5095930;28;20424;-65
2021/09/01 02:39:28;;;;;;;5.90;4.50;;;17.90;99.90;;;;;;5095558;28;20409;-65
2021/09/01 02:41:54;;;;;;;9.40;5.23;;;17.90;99.90;;;;;;5111268;28;20922;-66
2021/09/01 02:44:19;;;;;;;7.20;5.27;;;17.90;99.90;;;;;;5111064;28;20172;-65
2021/09/01 02:46:45;;;;;;;6.73;5.27;;;17.90;99.90;;;;;;5095315;28;20235;-65
2021/09/01 02:49:12;;;;;;;5.30;4.80;;;17.90;99.90;;;;;;5128018;27;20577;-65
2021/09/01 02:51:38;;;;;;;8.60;5.63;;;17.90;99.90;;;;;;5095501;28;20425;-65
2021/09/01 02:54:03;;;;;;;6.03;5.03;;;17.90;99.90;;;;;;5095200;28;20401;-65
2021/09/01 02:56:30;;;;;;;6.63;4.90;;;17.90;99.90;;;;;;5095224;28;20249;-65
2021/09/01 02:58:55;;;;;;;7.03;4.83;;;17.90;99.90;;;;;;5095219;28;20687;-65
2021/09/01 03:01:21;;;;;;;5.80;5.23;;;17.90;99.90;;;;;;5094841;28;20448;-65
2021/09/01 03:03:47;;;;;;;5.70;5.00;;;17.90;99.90;;;;;;5095058;28;20685;-66
2021/09/01 03:06:12;;;;;;;6.33;5.50;;;17.90;99.90;;;;;;5095003;28;20432;-65
2021/09/01 03:08:39;;;;;;;5.83;5.23;;;17.90;99.90;;;;;;5094831;28;20219;-66
2021/09/01 03:11:05;;;;;;;6.50;5.20;;;17.90;99.90;;;;;;5094783;28;20210;-65
2021/09/01 03:13:31;;;;;;;5.70;5.00;;;17.90;99.90;;;;;;5094859;28;20496;-65
2021/09/01 03:15:57;;;;;;;6.90;6.20;;;17.90;99.90;;;;;;5094802;28;20283;-65
2021/09/01 03:18:22;;;;;;;5.47;4.70;;;17.90;99.90;;;;;;5094724;28;20444;-66
2021/09/01 03:20:48;;;;;;;5.13;4.50;;;17.90;99.90;;;;;;5094587;28;20607;-66
2021/09/01 03:23:13;;;;;;;6.60;5.27;;;17.90;99.90;;;;;;5094586;28;20207;-66
2021/09/01 03:25:39;;;;;;;6.63;5.60;;;17.90;99.90;;;;;;5094402;28;20193;-65
2021/09/01 03:28:05;;;;;;;5.67;5.07;;;17.90;99.90;;;;;;5094497;28;20691;-65
2021/09/01 03:30:30;;;;;;;7.33;5.90;;;17.90;99.90;;;;;;5109989;28;20353;-66
2021/09/01 03:32:57;;;;;;;6.23;5.50;;;17.90;99.90;;;;;;5093890;28;20172;-65
2021/09/01 03:35:23;;;;;;;8.13;5.47;;;17.90;99.90;;;;;;5109950;28;20251;-65
2021/09/01 03:37:49;;;;;;;7.30;5.47;;;17.90;99.90;;;;;;5094820;28;20413;-65
2021/09/01 03:40:15;;;;;;;6.93;4.97;;;18.00;99.90;;;;;;5094218;28;20203;-66
2021/09/01 03:42:41;;;;;;;5.33;4.80;;;17.90;99.90;;;;;;5127446;27;20180;-66
2021/09/01 03:45:07;;;;;;;5.37;4.87;;;18.00;99.90;;;;;;5127073;27;20444;-66
2021/09/01 03:47:33;;;;;;;6.17;5.20;;;18.00;99.90;;;;;;5094679;28;20566;-65
2021/09/01 03:50:00;;;;;;;5.30;4.63;;;18.00;99.90;;;;;;5094014;28;20472;-67
2021/09/01 03:52:26;;;;;;;6.10;5.30;;;18.00;99.90;;;;;;5094597;28;20412;-65
2021/09/01 03:54:51;;;;;;;6.33;5.27;;;18.00;99.90;;;;;;5094048;28;20422;-66
2021/09/01 03:57:17;;;;;;;7.47;5.43;;;18.10;99.90;;;;;;5094421;28;20602;-65
2021/09/01 03:59:43;;;;;;;6.37;5.33;;;18.10;99.90;;;;;;5093994;28;20202;-65
2021/09/01 04:02:08;;;;;;;5.60;5.00;;;18.20;99.90;;;;;;5096321;28;20184;-65
2021/09/01 04:04:35;;;;;;;6.27;5.13;;;18.20;99.90;;;;;;5096119;28;20208;-65
2021/09/01 04:07:01;;;;;;;5.93;5.33;;;18.20;99.90;;;;;;5094285;28;20609;-65
2021/09/01 04:09:27;;;;;;;5.93;5.40;;;18.20;99.90;;;;;;5108157;28;20834;-65
2021/09/01 04:11:52;;;;;;;7.87;5.83;;;18.20;99.90;;;;;;5114453;28;20417;-65
2021/09/01 04:14:18;;;;;;;6.77;5.53;;;18.20;99.90;;;;;;5106777;28;20642;-65
2021/09/01 04:16:44;;;;;;;7.20;6.30;;;18.30;99.90;;;;;;5094072;28;20752;-66
2021/09/01 04:19:09;;;;;;;7.37;5.10;;;18.30;99.90;;;;;;5093502;28;20237;-65
2021/09/01 04:21:35;;;;;;;8.50;6.03;;;18.30;99.90;;;;;;5092855;28;20182;-66
2021/09/01 04:24:00;;;;;;;6.97;6.00;;;18.30;99.90;;;;;;5092466;28;20187;-66
2021/09/01 04:26:26;;;;;;;7.33;6.20;;;18.30;99.90;;;;;;5093833;28;20201;-65
2021/09/01 04:28:52;;;;;;;6.90;5.83;;;18.30;99.90;;;;;;5098163;28;20240;-65
2021/09/01 04:31:17;;;;;;;7.57;6.50;;;18.30;99.90;;;;;;5102722;28;20652;-65
2021/09/01 04:33:43;;;;;;;6.70;5.40;;;18.40;99.90;;;;;;5101527;28;20216;-66
2021/09/01 04:36:09;;;;;;;6.20;5.50;;;18.40;99.90;;;;;;5108231;28;20248;-65
2021/09/01 04:38:34;;;;;;;7.70;6.70;;;18.50;99.90;;;;;;5101029;28;20439;-67
2021/09/01 04:41:00;;;;;;;8.50;6.63;;;18.50;99.90;;;;;;5109083;28;20207;-65
2021/09/01 04:43:25;;;;;;;8.40;6.43;;;18.50;99.90;;;;;;5104439;28;20252;-66
2021/09/01 04:45:51;;;;;;;7.10;6.40;;;18.50;99.90;;;;;;5101842;28;20196;-65
2021/09/01 04:48:17;;;;;;;7.63;6.90;;;18.50;99.90;;;;;;5103039;28;20788;-66
2021/09/01 04:50:42;;;;;;;8.70;6.70;;;18.50;99.90;;;;;;5111713;28;20286;-66
2021/09/01 04:53:08;;;;;;;7.47;6.00;;;18.50;99.90;;;;;;5114403;28;20191;-67
2021/09/01 04:55:34;;;;;;;6.23;5.63;;;18.50;99.90;;;;;;5109065;28;20192;-66
2021/09/01 04:58:00;;;;;;;7.33;6.50;;;18.50;99.90;;;;;;5138803;27;20200;-65
2021/09/01 05:00:26;;;;;;;7.67;6.87;;;18.60;99.90;;;;;;5108059;28;20432;-65
2021/09/01 05:02:52;;;;;;;9.07;6.70;;;18.60;99.90;;;;;;5101993;28;20440;-66
2021/09/01 05:05:18;;;;;;;7.10;5.90;;;18.60;99.90;;;;;;5135986;27;20441;-65
2021/09/01 05:07:43;;;;;;;7.60;6.27;;;18.50;99.90;;;;;;5109572;28;20173;-65
2021/09/01 05:10:10;;;;;;;7.40;6.57;;;18.50;99.90;;;;;;5107398;28;20215;-66
2021/09/01 05:12:35;;;;;;;7.83;6.90;;;18.50;99.90;;;;;;5101906;28;20183;-66
2021/09/01 05:15:02;;;;;;;7.83;6.40;;;18.50;99.90;;;;;;5102815;28;20528;-66
2021/09/01 05:17:27;;;;;;;7.83;6.97;;;18.50;99.90;;;;;;5108365;28;20176;-65
2021/09/01 05:19:53;;;;;;;9.17;7.70;;;18.50;99.90;;;;;;5107797;27;20983;-65
2021/09/01 05:22:22;;;;;;;6.90;6.20;;;18.50;99.90;;;;;;5102769;28;20184;-65
2021/09/01 05:24:59;;;;;;;8.10;6.20;;;18.40;99.90;;;;;;5101836;28;20205;-65
2021/09/01 05:27:26;;;;;;;8.70;6.60;;;18.40;99.90;;;;;;5096763;28;20551;-65
2021/09/01 05:29:52;;;;;;;7.93;6.77;;;18.40;99.90;;;;;;5111398;28;20475;-65
2021/09/01 05:32:23;;;;;;;7.00;6.30;;;18.40;99.90;;;;;;5103303;28;20926;-65
2021/09/01 05:34:50;;;;;;;9.73;7.80;;;18.40;99.90;;;;;;5141847;27;20301;-65
2021/09/01 05:37:17;;;;;;;9.30;6.90;;;18.40;99.90;;;;;;5103790;28;20469;-66
2021/09/01 05:39:46;;;;;;;7.83;7.03;;;18.50;99.90;;;;;;5116591;28;20435;-66
2021/09/01 05:42:13;;;;;;;8.03;6.70;;;18.50;99.90;;;;;;5106271;28;20836;-66
2021/09/01 05:44:40;;;;;;;10.73;6.40;;;18.50;99.90;;;;;;5110493;28;20857;-65
2021/09/01 05:47:10;;;;;;;9.47;6.90;;;18.50;99.90;;;;;;5095956;28;20433;-66
2021/09/01 05:49:37;;;;;;;7.10;6.40;;;18.50;99.90;;;;;;5117748;27;20484;-66
2021/09/01 05:52:04;;;;;;;7.67;6.67;;;18.50;99.90;;;;;;5101511;28;20436;-65
2021/09/01 05:54:30;;;;;;;7.77;6.97;;;18.50;99.90;;;;;;5099212;28;20834;-66
2021/09/01 05:57:06;;;;;;;7.27;6.23;;;18.50;99.90;;;;;;5101702;28;20435;-65
2021/09/01 05:59:38;;;;;;;7.43;6.73;;;18.50;99.90;;;;;;5105032;28;20673;-66
2021/09/01 06:02:09;;;;;;;10.70;6.57;;;18.50;99.90;;;;;;5110564;28;20481;-65
2021/09/01 06:04:41;;;;;;;8.00;6.53;;;18.60;99.90;;;;;;5107222;28;20928;-66
2021/09/01 06:07:13;;;;;;;9.60;6.70;;;18.60;99.90;;;;;;5107956;28;20956;-65
2021/09/01 06:09:43;;;;;;;9.27;6.70;;;18.60;99.90;;;;;;5100520;28;20506;-65
2021/09/01 06:12:15;;;;;;;8.53;7.03;;;18.60;99.90;;;;;;5103413;28;20870;-66
2021/09/01 06:14:41;;;;;;;7.07;6.33;;;18.70;99.90;;;;;;5137753;27;20538;-66
2021/09/01 06:17:06;;;;;;;8.37;7.47;;;18.70;99.90;;;;;;5101410;28;20435;-65
2021/09/01 06:19:32;;;;;;;8.13;6.60;;;18.70;99.90;;;;;;5106990;28;20437;-66
2021/09/01 06:21:58;;;;;;;8.27;6.33;;;18.70;99.90;;;;;;5098533;28;20200;-67
2021/09/01 06:24:24;;;;;;;9.73;6.53;;;18.70;99.90;;;;;;5110130;28;20413;-65
2021/09/01 06:26:50;;;;;;;10.50;6.87;;;18.80;99.90;;;;;;5107481;28;20424;-66
2021/09/01 06:29:15;;;;;;;9.40;7.23;;;18.80;99.90;;;;;;5100296;28;20208;-65
2021/09/01 06:31:41;;;;;;;9.63;7.60;;;18.80;99.90;;;;;;5105261;28;20184;-67
2021/09/01 06:34:07;;;;;;;7.87;6.77;;;18.80;99.90;;;;;;5098814;28;20222;-66
2021/09/01 06:36:32;;;;;;;6.93;6.23;;;18.80;99.90;;;;;;5101426;28;20200;-66
2021/09/01 06:38:58;;;;;;;7.37;6.60;;;18.80;99.90;;;;;;5099981;28;20198;-65
2021/09/01 06:41:23;;;;;;;8.63;6.50;;;18.80;99.90;;;;;;5101780;28;20208;-66
2021/09/01 06:43:49;;;;;;;9.00;6.77;;;18.80;99.90;;;;;;5096520;28;20188;-65
2021/09/01 06:46:14;;;;;;;8.10;7.07;;;18.80;99.90;;;;;;5138647;27;20745;-65
2021/09/01 06:48:40;;;;;;;7.57;5.93;;;18.80;99.90;;;;;;5093750;28;20223;-65
2021/09/01 06:51:06;;;;;;;6.80;5.80;;;18.80;99.90;;;;;;5105544;28;20226;-65
2021/09/01 06:53:31;;;;;;;8.57;6.17;;;18.80;99.90;;;;;;5106949;28;20176;-66
2021/09/01 06:55:57;;;;;;;7.10;6.33;;;18.90;99.90;;;;;;5097085;28;20628;-65
2021/09/01 06:58:22;;;;;;;8.50;6.13;;;18.90;99.90;;;;;;5096125;28;20639;-65
2021/09/01 07:00:48;;;;;;;9.33;6.50;;;19.00;99.90;;;;;;5098792;28;20580;-65
2021/09/01 07:03:14;;;;;;;7.53;6.73;;;19.00;99.90;;;;;;5098054;28;21534;-66
2021/09/01 07:05:39;;;;;;;7.60;6.50;;;19.10;99.90;;;;;;5131623;27;20189;-65
2021/09/01 07:08:16;;;;;;;8.80;7.20;;;19.10;99.90;;;;;;5096991;28;20181;-66
2021/09/01 07:10:43;;;;;;;7.20;6.53;;;19.10;99.90;;;;;;5143320;27;20238;-65
2021/09/01 07:13:09;;;;;;;7.73;6.57;;;19.10;99.90;;;;;;5100907;28;20938;-66
2021/09/01 07:15:35;;;;;;;7.43;6.63;;;19.10;99.90;;;;;;5109679;28;20463;-65
2021/09/01 07:18:01;;;;;;;8.67;7.10;;;19.10;99.90;;;;;;5108946;28;20184;-67
2021/09/01 07:20:26;;;;;;;8.43;6.03;;;19.10;99.90;;;;;;5107982;28;20313;-65
2021/09/01 07:22:52;;;;;;;7.73;6.70;;;19.10;99.90;;;;;;5100498;28;20175;-66
2021/09/01 07:25:17;;;;;;;8.93;6.57;;;19.10;99.90;;;;;;5132183;27;20220;-65
2021/09/01 07:27:43;;;;;;;10.87;6.80;;;19.10;99.90;;;;;;5098683;28;20227;-65
2021/09/01 07:30:09;;;;;;;7.40;6.70;;;19.20;99.90;;;;;;5099543;28;20350;-66
2021/09/01 07:32:35;;;;;;;6.97;6.27;;;19.20;99.90;;;;;;5098375;28;20198;-66
2021/09/01 07:35:01;;;;;;;10.20;7.70;;;19.30;99.90;;;;;;5100887;28;20454;-65
2021/09/01 07:37:27;;;;;;;9.10;6.83;;;19.20;99.90;;;;;;5104902;28;20464;-65
2021/09/01 07:39:53;;;;;;;7.70;6.90;;;19.30;99.90;;;;;;5099295;28;20465;-65
2021/09/01 07:42:18;;;;;;;9.10;6.80;;;19.30;99.90;;;;;;5103183;28;20191;-65
2021/09/01 07:44:44;;;;;;;8.70;7.27;;;19.30;99.90;;;;;;5110874;28;20208;-65
2021/09/01 07:47:10;;;;;;;10.63;8.00;;;19.30;99.90;;;;;;5135363;27;20326;-65
2021/09/01 07:49:36;;;;;;;11.60;7.60;;;19.30;99.90;;;;;;5100339;28;20479;-65
2021/09/01 07:52:02;;;;;;;7.90;6.37;;;19.40;99.90;;;;;;5108009;28;20435;-65
2021/09/01 07:54:28;;;;;;;13.63;6.27;;;19.40;99.90;;;;;;5102287;28;20577;-65
2021/09/01 07:56:53;;;;;;;9.07;6.57;;;19.40;99.90;;;;;;5105628;28;20524;-66
2021/09/01 07:59:19;;;;;;;7.80;6.57;;;19.40;99.90;;;;;;5099970;28;20283;-66
2021/09/01 08:01:45;;;;;;;12.70;7.73;;;19.40;99.90;;;;;;5099803;28;20562;-65
2021/09/01 08:04:10;;;;;;;8.30;7.23;;;19.50;99.90;;;;;;5107565;28;20184;-65
2021/09/01 08:06:36;;;;;;;7.83;6.10;;;19.50;99.90;;;;;;5102304;28;20176;-66
2021/09/01 08:09:02;;;;;;;7.80;7.00;;;19.50;99.90;;;;;;5104491;28;20251;-65
2021/09/01 08:11:28;;;;;;;10.47;7.43;;;19.60;99.90;;;;;;5100131;28;20209;-66
2021/09/01 08:13:53;;;;;;;7.50;6.80;;;19.60;99.90;;;;;;5099722;28;20553;-66
2021/09/01 08:16:19;;;;;;;13.73;9.20;;;19.60;99.90;;;;;;5097089;28;20232;-65
2021/09/01 08:18:45;;;;;;;12.70;6.77;;;19.60;99.90;;;;;;5105609;28;20230;-66
2021/09/01 08:21:10;;;;;;;8.10;6.97;;;19.70;99.90;;;;;;5102489;28;20929;-66
2021/09/01 08:23:36;;;;;;;8.67;6.50;;;19.80;99.90;;;;;;5103314;28;20529;-66
2021/09/01 08:26:01;;;;;;;8.87;6.70;;;19.90;99.90;;;;;;5101556;28;20216;-65
2021/09/01 08:28:27;;;;;;;7.17;6.13;;;20.00;99.90;;;;;;5102906;28;20354;-65
2021/09/01 08:30:53;;;;;;;8.10;6.30;;;20.10;99.90;;;;;;5102888;28;20209;-66
2021/09/01 08:33:19;;;;;;;7.53;6.47;;;20.20;99.90;;;;;;5103235;28;20208;-67
2021/09/01 08:35:44;;;;;;;8.03;6.00;;;20.40;99.90;;;;;;5098088;28;20671;-65
2021/09/01 08:38:10;;;;;;;13.03;6.10;;;20.50;99.90;;;;;;5102609;28;20179;-67
2021/09/01 08:40:35;;;;;;;7.20;5.20;;;20.60;99.90;;;;;;5102849;28;20187;-66
2021/09/01 08:43:01;;;;;;;6.80;6.10;;;20.70;99.90;;;;;;5105739;28;20940;-66
2021/09/01 08:45:27;;;;;;;10.10;6.93;;;20.90;99.90;;;;;;5108587;28;20230;-65
2021/09/01 08:47:55;;;;;;;7.53;6.13;;;21.00;99.90;;;;;;5106646;28;20184;-67
2021/09/01 08:50:21;;;;;;;7.10;5.43;;;21.30;99.90;;;;;;5102064;28;20211;-66
2021/09/01 08:52:47;;;;;;;9.30;6.27;;;21.40;99.90;;;;;;5106799;28;20462;-66
2021/09/01 08:55:14;;;;;;;7.30;6.03;;;21.50;99.90;;;;;;5103024;28;20464;-67
2021/09/01 08:57:41;;;;;;;9.33;6.43;;;21.50;99.90;;;;;;5108309;28;20416;-66
2021/09/01 09:00:09;;;;;;;7.33;6.30;;;21.50;99.90;;;;;;5099182;28;20787;-65
2021/09/01 09:02:34;;;;;;;7.17;6.30;;;21.40;99.90;;;;;;5107211;28;20810;-67
2021/09/01 09:05:08;;;;;;;7.80;6.43;;;21.30;99.90;;;;;;5098861;28;20452;-65
2021/09/01 09:07:54;;;;;;;9.20;6.13;;;21.20;99.90;;;;;;5099594;28;20180;-65
2021/09/01 09:10:38;;;;;;;8.33;6.27;;;21.20;99.90;;;;;;5106012;28;20486;-65
2021/09/01 09:13:09;;;;;;;10.07;7.00;;;21.10;99.90;;;;;;5101239;28;20425;-66
2021/09/01 09:15:36;;;;;;;9.57;6.33;;;21.10;99.90;;;;;;5101977;28;20440;-67
2021/09/01 09:18:03;;;;;;;6.23;5.40;;;21.00;99.90;;;;;;5101837;28;20826;-66
2021/09/01 09:20:34;;;;;;;7.33;6.10;;;21.00;99.90;;;;;;5106318;28;20490;-67
2021/09/01 09:23:05;;;;;;;8.13;5.60;;;21.00;99.90;;;;;;5109588;28;20453;-65
2021/09/01 09:25:32;;;;;;;7.33;5.80;;;20.90;99.90;;;;;;5127123;27;20493;-67
2021/09/01 09:28:06;;;;;;;7.63;6.30;;;21.00;99.90;;;;;;5104397;28;21052;-66
2021/09/01 09:30:44;;;;;;;6.30;5.70;;;20.90;99.90;;;;;;5110703;28;20471;-65
2021/09/01 09:33:21;;;;;;;6.27;5.50;;;20.80;99.90;;;;;;5114195;28;20753;-67
2021/09/01 09:36:02;;;;;;;10.90;6.53;;;20.80;99.90;;;;;;5143192;27;20621;-65
2021/09/01 09:38:39;;;;;;;6.97;5.90;;;20.70;99.90;;;;;;5101441;28;20431;-65
2021/09/01 09:41:30;;;;;;;6.30;5.37;;;20.70;99.90;;;;;;5104017;28;20943;-65
2021/09/01 09:44:03;;;;;;;7.30;5.80;;;20.80;99.90;;;;;;5102054;28;21005;-66
2021/09/01 09:46:29;;;;;;;6.03;5.43;;;20.80;99.90;;;;;;5097766;28;20877;-65
2021/09/01 09:49:08;;;;;;;7.63;6.00;;;20.80;99.90;;;;;;5104905;28;20840;-66
2021/09/01 09:51:41;;;;;;;6.43;5.33;;;20.80;99.90;;;;;;5102510;28;20434;-65
2021/09/01 09:54:18;;;;;;;8.87;5.50;;;20.80;99.90;;;;;;5101178;27;20493;-66
2021/09/01 09:56:45;;;;;;;6.53;5.80;;;20.90;99.90;;;;;;5105024;28;20514;-65
2021/09/01 09:59:16;;;;;;;6.80;6.00;;;20.90;99.90;;;;;;5132612;27;20478;-65
2021/09/01 10:01:43;;;;;;;7.40;5.80;;;20.90;99.90;;;;;;5109600;28;20446;-65
2021/09/01 10:04:09;;;;;;;8.63;5.80;;;20.90;99.90;;;;;;5105395;28;20939;-66
2021/09/01 10:06:35;;;;;;;6.23;5.40;;;20.80;99.90;;;;;;5109103;28;20748;-65
2021/09/01 10:09:03;;;;;;;8.30;5.33;;;20.80;99.90;;;;;;5104369;28;20476;-65
2021/09/01 10:11:29;;;;;;;6.00;4.53;;;20.90;99.90;;;;;;5112932;27;20208;-65
2021/09/01 10:13:55;;;;;;;5.50;5.00;;;20.90;99.90;;;;;;5101084;28;20453;-65
2021/09/01 10:16:20;;;;;;;6.63;5.00;;;20.90;99.90;;;;;;5104840;28;20550;-65
2021/09/01 10:18:53;;;;;;;6.30;4.90;;;20.90;99.90;;;;;;5129759;27;20178;-66
2021/09/01 10:21:25;;;;;;;7.03;4.90;;;20.90;99.90;;;;;;5109350;28;20582;-66
2021/09/01 10:23:50;;;;;;;4.90;4.40;;;20.90;99.90;;;;;;5105585;28;20421;-66
2021/09/01 10:26:29;;;;;;;5.83;5.13;;;20.90;99.90;;;;;;5102725;28;20873;-66
2021/09/01 10:28:57;;;;;;;7.63;6.20;;;20.90;99.90;;;;;;5101455;28;20238;-66
2021/09/01 10:31:26;;;;;;;5.70;5.03;;;20.90;99.90;;;;;;5101880;28;20465;-65
2021/09/01 10:33:54;;;;;;;5.83;5.23;;;20.80;99.90;;;;;;5096539;28;20443;-66
2021/09/01 10:36:23;;;;;;;7.43;5.63;;;20.90;99.90;;;;;;5099017;28;20454;-66
2021/09/01 10:38:53;;;;;;;6.17;4.97;;;20.80;99.90;;;;;;5108686;28;20416;-66
2021/09/01 10:41:30;;;;;;;7.40;5.87;;;20.80;99.90;;;;;;5095371;28;20553;-67
2021/09/01 10:44:05;;;;;;;10.57;5.47;;;20.80;99.90;;;;;;5098207;28;20477;-66
2021/09/01 10:46:50;;;;;;;11.27;5.27;;;20.80;99.90;;;;;;5099532;28;20891;-65
2021/09/01 10:49:17;;;;;;;6.87;5.10;;;20.80;99.90;;;;;;5104440;28;20470;-65
2021/09/01 10:52:03;;;;;;;7.27;4.70;;;20.80;99.90;;;;;;5133247;27;20435;-66
2021/09/01 10:54:33;;;;;;;7.03;4.47;;;20.80;99.90;;;;;;5103534;28;20459;-65
2021/09/01 10:57:00;;;;;;;5.67;5.13;;;20.80;99.90;;;;;;5108731;27;20426;-66
2021/09/01 10:59:31;;;;;;;6.80;4.60;;;20.80;99.90;;;;;;5106889;28;20424;-65
2021/09/01 11:02:09;;;;;;;7.37;5.07;;;20.80;99.90;;;;;;5106124;28;20986;-65
2021/09/01 11:04:35;;;;;;;6.13;4.80;;;20.70;99.90;;;;;;5106415;28;20493;-66
2021/09/01 11:07:05;;;;;;;9.40;5.13;;;20.70;99.90;;;;;;5100241;28;20446;-66
2021/09/01 11:09:30;;;;;;;9.37;5.33;;;20.70;99.90;;;;;;5102172;28;20493;-66
2021/09/01 11:11:58;;;;;;;5.73;4.70;;;20.80;99.90;;;;;;5133161;27;20430;-66
2021/09/01 11:14:43;;;;;;;8.67;5.00;;;20.80;99.90;;;;;;5102994;28;20431;-65
2021/09/01 11:17:12;;;;;;;8.73;5.57;;;20.80;99.90;;;;;;5103290;28;20441;-65
2021/09/01 11:19:40;;;;;;;11.27;6.20;;;20.90;99.90;;;;;;5096612;28;20470;-65
2021/09/01 11:22:17;;;;;;;8.40;5.80;;;20.90;99.90;;;;;;5106711;28;20476;-65
2021/09/01 11:24:43;;;;;;;6.03;5.43;;;21.00;99.90;;;;;;5101385;28;20447;-66
2021/09/01 11:27:12;;;;;;;7.57;5.53;;;21.10;99.90;;;;;;5103677;28;20459;-66
2021/09/01 11:29:37;;;;;;;7.57;5.23;;;21.20;99.90;;;;;;5101474;28;20486;-66
2021/09/01 11:32:04;;;;;;;6.80;5.90;;;21.30;99.90;;;;;;5103029;28;20423;-65
2021/09/01 11:34:29;;;;;;;7.10;5.30;;;21.30;99.90;;;;;;5105317;28;20212;-67
2021/09/01 11:36:55;;;;;;;6.00;5.40;;;21.30;99.90;;;;;;5105243;28;20787;-65
2021/09/01 11:39:21;;;;;;;7.87;5.10;;;21.30;99.90;;;;;;5104823;28;20196;-65
2021/09/01 11:41:55;;;;;;;5.43;4.93;;;21.30;99.90;;;;;;5108716;28;20183;-66
2021/09/01 11:44:21;;;;;;;8.07;5.20;;;21.30;99.90;;;;;;5097504;28;20191;-65
2021/09/01 11:46:46;;;;;;;5.20;4.10;;;21.40;99.90;;;;;;5103917;28;20462;-67
2021/09/01 11:49:14;;;;;;;4.93;4.43;;;21.40;99.90;;;;;;5102071;28;20553;-66
2021/09/01 11:51:45;;;;;;;4.57;4.17;;;21.50;99.90;;;;;;5101297;28;20180;-66
2021/09/01 11:54:12;;;;;;;6.80;4.70;;;21.50;99.90;;;;;;5101240;28;20520;-66
2021/09/01 11:56:38;;;;;;;6.50;4.70;;;21.60;99.90;;;;;;5108911;28;20991;-66
2021/09/01 11:59:06;;;;;;;6.07;4.60;;;21.60;99.90;;;;;;5102907;28;20519;-66
2021/09/01 12:01:35;;;;;;;5.13;4.60;;;21.60;99.90;;;;;;5101040;28;20219;-67
2021/09/01 12:04:01;;;;;;;8.73;5.00;;;21.60;99.90;;;;;;5104302;28;20435;-66
2021/09/01 12:06:42;;;;;;;4.93;4.43;;;21.50;99.90;;;;;;5106003;28;20542;-65
2021/09/01 12:09:14;;;;;;;5.30;4.80;;;21.40;99.90;;;;;;5105826;28;20474;-66
2021/09/01 12:12:01;;;;;;;5.33;4.37;;;21.40;99.90;;;;;;5102335;28;20435;-66
2021/09/01 12:14:29;;;;;;;4.80;4.20;;;21.40;99.90;;;;;;5106222;28;20435;-66
2021/09/01 12:17:16;;;;;;;8.13;5.10;;;21.40;99.90;;;;;;5097908;28;20436;-65
2021/09/01 12:19:49;;;;;;;6.30;4.70;;;21.40;99.90;;;;;;5107426;28;20492;-65
2021/09/01 12:22:29;;;;;;;9.10;6.23;;;21.30;99.90;;;;;;5130584;27;20440;-67
2021/09/01 12:25:12;;;;;;;7.30;4.97;;;21.30;99.90;;;;;;5108599;28;20483;-66
2021/09/01 12:27:41;;;;;;;5.73;4.50;;;21.30;99.90;;;;;;5106805;28;20528;-65
2021/09/01 12:30:09;;;;;;;7.57;4.30;;;21.30;99.90;;;;;;5098060;28;20491;-66
2021/09/01 12:32:34;;;;;;;6.20;4.70;;;21.30;99.90;;;;;;5102824;28;20438;-65
2021/09/01 12:35:03;;;;;;;5.40;4.60;;;21.30;99.90;;;;;;5109858;28;20968;-65
2021/09/01 12:37:31;;;;;;;4.63;4.20;;;21.30;99.90;;;;;;5103011;28;20190;-65
2021/09/01 12:39:59;;;;;;;5.40;4.90;;;21.20;99.90;;;;;;5101242;28;21876;-65
2021/09/01 12:42:31;;;;;;;4.27;3.87;;;21.20;99.90;;;;;;5136989;27;20427;-65
2021/09/01 12:44:59;;;;;;;4.97;3.87;;;21.20;99.90;;;;;;5099285;28;20985;-67
2021/09/01 12:47:26;;;;;;;5.70;4.37;;;21.20;99.90;;;;;;5104824;28;20521;-65